sensor_id;sensor_type;location;lat;lon;timestamp;temperature;humidity
12335;DHT22;6233;51.560;9.986;2023-02-01T00:00:12;4.30;99.90
12335;DHT22;6233;51.560;9.986;2023-02-01T00:03:14;4.30;99.90
12335;DHT22;6233;51.560;9.986;2023-02-01T00:06:16;4.30;99.90
12335;DHT22;6233;51.560;9.986;2023-02-01T00:09:18;4.20;99.90
12335;DHT22;6233;51.560;9.986;2023-02-01T00:12:19;4.30;99.90
12335;DHT22;6233;51.560;9.986;2023-02-01T00:15:21;4.30;99.90
12335;DHT22;6233;51.560;9.986;2023-02-01T00:18:24;4.30;99.90
12335;DHT22;6233;51.560;9.986;2023-02-01T00:21:26;4.30;99.90
12335;DHT22;6233;51.560;9.986;2023-02-01T00:24:28;4.30;99.90
12335;DHT22;6233;51.560;9.986;2023-02-01T00:27:29;4.30;99.90
12335;DHT22;6233;51.560;9.986;2023-02-01T00:30:31;4.30;99.90
12335;DHT22;6233;51.560;9.986;2023-02-01T00:33:33;4.30;99.90
12335;DHT22;6233;51.560;9.986;2023-02-01T00:36:35;4.20;99.90
12335;DHT22;6233;51.560;9.986;2023-02-01T00:39:37;4.30;99.90
12335;DHT22;6233;51.560;9.986;2023-02-01T00:42:39;4.20;99.90
12335;DHT22;6233;51.560;9.986;2023-02-01T00:45:40;4.30;99.90
12335;DHT22;6233;51.560;9.986;2023-02-01T00:48:42;4.30;99.90
12335;DHT22;6233;51.560;9.986;2023-02-01T00:51:44;4.30;99.90
12335;DHT22;6233;51.560;9.986;2023-02-01T00:54:46;4.30;99.90
12335;DHT22;6233;51.560;9.986;2023-02-01T00:57:48;4.20;99.90
12335;DHT22;6233;51.560;9.986;2023-02-01T01:00:50;4.20;99.90
12335;DHT22;6233;51.560;9.986;2023-02-01T01:03:57;4.20;99.90
12335;DHT22;6233;51.560;9.986;2023-02-01T01:06:58;4.20;99.90
12335;DHT22;6233;51.560;9.986;2023-02-01T01:10:00;4.20;99.90
12335;DHT22;6233;51.560;9.986;2023-02-01T01:13:02;4.20;99.90
12335;DHT22;6233;51.560;9.986;2023-02-01T01:16:05;4.20;99.90
12335;DHT22;6233;51.560;9.986;2023-02-01T01:19:07;4.20;99.90
12335;DHT22;6233;51.560;9.986;2023-02-01T01:22:09;4.20;99.90
12335;DHT22;6233;51.560;9.986;2023-02-01T01:25:10;4.20;99.90
12335;DHT22;6233;51.560;9.986;2023-02-01T01:28:12;4.20;99.90
12335;DHT22;6233;51.560;9.986;2023-02-01T01:31:16;4.20;99.90
12335;DHT22;6233;51.560;9.986;2023-02-01T01:34:18;4.20;99.90
12335;DHT22;6233;51.560;9.986;2023-02-01T01:37:20;4.20;99.90
12335;DHT22;6233;51.560;9.986;2023-02-01T01:40:22;4.20;99.90
12335;DHT22;6233;51.560;9.986;2023-02-01T01:43:24;4.20;99.90
12335;DHT22;6233;51.560;9.986;2023-02-01T01:46:29;4.20;99.90
12335;DHT22;6233;51.560;9.986;2023-02-01T01:49:31;4.20;99.90
12335;DHT22;6233;51.560;9.986;2023-02-01T01:52:34;4.20;99.90
12335;DHT22;6233;51.560;9.986;2023-02-01T01:55:39;4.20;99.90
12335;DHT22;6233;51.560;9.986;2023-02-01T01:58:42;4.20;99.90
12335;DHT22;6233;51.560;9.986;2023-02-01T02:01:44;4.20;99.90
12335;DHT22;6233;51.560;9.986;2023-02-01T02:04:47;4.20;99.90
12335;DHT22;6233;51.560;9.986;2023-02-01T02:07:50;4.20;99.90
12335;DHT22;6233;51.560;9.986;2023-02-01T02:10:55;4.10;99.90
12335;DHT22;6233;51.560;9.986;2023-02-01T02:14:04;4.20;99.90
12335;DHT22;6233;51.560;9.986;2023-02-01T02:21:15;4.10;99.90
12335;DHT22;6233;51.560;9.986;2023-02-01T02:34:37;4.10;99.90
12335;DHT22;6233;51.560;9.986;2023-02-01T02:37:52;4.10;99.90
12335;DHT22;6233;51.560;9.986;2023-02-01T02:44:21;4.10;99.90
12335;DHT22;6233;51.560;9.986;2023-02-01T02:51:18;4.10;99.90
12335;DHT22;6233;51.560;9.986;2023-02-01T02:54:45;4.10;99.90
12335;DHT22;6233;51.560;9.986;2023-02-01T02:57:49;4.10;99.90
12335;DHT22;6233;51.560;9.986;2023-02-01T03:01:10;4.20;99.90
12335;DHT22;6233;51.560;9.986;2023-02-01T03:04:30;4.20;99.90
12335;DHT22;6233;51.560;9.986;2023-02-01T03:11:10;4.20;99.90
12335;DHT22;6233;51.560;9.986;2023-02-01T03:14:13;4.20;99.90
12335;DHT22;6233;51.560;9.986;2023-02-01T03:17:19;4.20;99.90
12335;DHT22;6233;51.560;9.986;2023-02-01T03:20:24;4.20;99.90
12335;DHT22;6233;51.560;9.986;2023-02-01T03:23:31;4.20;99.90
12335;DHT22;6233;51.560;9.986;2023-02-01T03:26:39;4.20;99.90
12335;DHT22;6233;51.560;9.986;2023-02-01T03:32:54;4.20;99.90
12335;DHT22;6233;51.560;9.986;2023-02-01T03:42:38;4.20;99.90
12335;DHT22;6233;51.560;9.986;2023-02-01T03:45:54;4.20;99.90
12335;DHT22;6233;51.560;9.986;2023-02-01T03:49:02;4.20;99.90
12335;DHT22;6233;51.560;9.986;2023-02-01T03:52:06;4.20;99.90
12335;DHT22;6233;51.560;9.986;2023-02-01T03:55:11;4.30;99.90
12335;DHT22;6233;51.560;9.986;2023-02-01T03:58:22;4.30;99.90
12335;DHT22;6233;51.560;9.986;2023-02-01T04:01:29;4.30;99.90
12335;DHT22;6233;51.560;9.986;2023-02-01T04:04:33;4.30;99.90
12335;DHT22;6233;51.560;9.986;2023-02-01T04:07:35;4.30;99.90
12335;DHT22;6233;51.560;9.986;2023-02-01T04:10:37;4.30;99.90
12335;DHT22;6233;51.560;9.986;2023-02-01T04:13:38;4.30;99.90
12335;DHT22;6233;51.560;9.986;2023-02-01T04:16:41;4.30;99.90
12335;DHT22;6233;51.560;9.986;2023-02-01T04:19:44;4.30;99.90
12335;DHT22;6233;51.560;9.986;2023-02-01T04:22:45;4.30;99.90
12335;DHT22;6233;51.560;9.986;2023-02-01T04:25:47;4.30;99.90
12335;DHT22;6233;51.560;9.986;2023-02-01T04:28:49;4.30;99.90
12335;DHT22;6233;51.560;9.986;2023-02-01T04:31:51;4.30;99.90
12335;DHT22;6233;51.560;9.986;2023-02-01T04:34:52;4.30;99.90
12335;DHT22;6233;51.560;9.986;2023-02-01T04:37:54;4.30;99.90
12335;DHT22;6233;51.560;9.986;2023-02-01T04:40:56;4.30;99.90
12335;DHT22;6233;51.560;9.986;2023-02-01T04:43:58;4.30;99.90
12335;DHT22;6233;51.560;9.986;2023-02-01T04:46:59;4.30;99.90
12335;DHT22;6233;51.560;9.986;2023-02-01T04:50:01;4.20;99.90
12335;DHT22;6233;51.560;9.986;2023-02-01T04:53:03;4.30;99.90
12335;DHT22;6233;51.560;9.986;2023-02-01T04:56:05;4.30;99.90
12335;DHT22;6233;51.560;9.986;2023-02-01T04:59:11;4.30;99.90
12335;DHT22;6233;51.560;9.986;2023-02-01T05:02:13;4.30;99.90
12335;DHT22;6233;51.560;9.986;2023-02-01T05:05:14;4.30;99.90
12335;DHT22;6233;51.560;9.986;2023-02-01T05:08:16;4.30;99.90
12335;DHT22;6233;51.560;9.986;2023-02-01T05:11:18;4.30;99.90
12335;DHT22;6233;51.560;9.986;2023-02-01T05:14:38;4.30;99.90
12335;DHT22;6233;51.560;9.986;2023-02-01T05:17:40;4.30;99.90
12335;DHT22;6233;51.560;9.986;2023-02-01T05:20:42;4.30;99.90
12335;DHT22;6233;51.560;9.986;2023-02-01T05:23:44;4.30;99.90
12335;DHT22;6233;51.560;9.986;2023-02-01T05:27:12;4.30;99.90
12335;DHT22;6233;51.560;9.986;2023-02-01T05:30:14;4.30;99.90
12335;DHT22;6233;51.560;9.986;2023-02-01T05:33:16;4.40;99.90
12335;DHT22;6233;51.560;9.986;2023-02-01T05:36:17;4.40;99.90
12335;DHT22;6233;51.560;9.986;2023-02-01T05:39:19;4.30;99.90
12335;DHT22;6233;51.560;9.986;2023-02-01T05:42:21;4.30;99.90
12335;DHT22;6233;51.560;9.986;2023-02-01T05:45:23;4.30;99.90
12335;DHT22;6233;51.560;9.986;2023-02-01T05:48:25;4.30;99.90
12335;DHT22;6233;51.560;9.986;2023-02-01T05:51:26;4.30;99.90
12335;DHT22;6233;51.560;9.986;2023-02-01T05:54:28;4.30;99.90
12335;DHT22;6233;51.560;9.986;2023-02-01T05:57:30;4.20;99.90
12335;DHT22;6233;51.560;9.986;2023-02-01T06:00:32;4.20;99.90
12335;DHT22;6233;51.560;9.986;2023-02-01T06:03:36;4.10;99.90
12335;DHT22;6233;51.560;9.986;2023-02-01T06:06:38;4.10;99.90
12335;DHT22;6233;51.560;9.986;2023-02-01T06:09:39;4.00;99.90
12335;DHT22;6233;51.560;9.986;2023-02-01T06:12:41;4.00;99.90
12335;DHT22;6233;51.560;9.986;2023-02-01T06:15:43;3.90;99.90
12335;DHT22;6233;51.560;9.986;2023-02-01T06:18:45;3.90;99.90
12335;DHT22;6233;51.560;9.986;2023-02-01T06:21:48;3.90;99.90
12335;DHT22;6233;51.560;9.986;2023-02-01T06:24:49;3.90;99.90
12335;DHT22;6233;51.560;9.986;2023-02-01T06:27:51;3.80;99.90
12335;DHT22;6233;51.560;9.986;2023-02-01T06:30:53;3.80;99.90
12335;DHT22;6233;51.560;9.986;2023-02-01T06:33:55;3.80;99.90
12335;DHT22;6233;51.560;9.986;2023-02-01T06:36:56;3.80;99.90
12335;DHT22;6233;51.560;9.986;2023-02-01T06:39:58;3.70;99.90
12335;DHT22;6233;51.560;9.986;2023-02-01T06:43:00;3.70;99.90
12335;DHT22;6233;51.560;9.986;2023-02-01T06:46:04;3.70;99.90
12335;DHT22;6233;51.560;9.986;2023-02-01T06:49:06;3.70;99.90
12335;DHT22;6233;51.560;9.986;2023-02-01T06:52:08;3.70;99.90
12335;DHT22;6233;51.560;9.986;2023-02-01T06:55:09;3.70;99.90
12335;DHT22;6233;51.560;9.986;2023-02-01T06:58:11;3.70;99.90
12335;DHT22;6233;51.560;9.986;2023-02-01T07:01:13;3.70;99.90
12335;DHT22;6233;51.560;9.986;2023-02-01T07:04:25;3.70;99.90
12335;DHT22;6233;51.560;9.986;2023-02-01T07:07:27;3.70;99.90
12335;DHT22;6233;51.560;9.986;2023-02-01T07:10:29;3.80;99.90
12335;DHT22;6233;51.560;9.986;2023-02-01T07:13:31;3.70;99.90
12335;DHT22;6233;51.560;9.986;2023-02-01T07:16:34;3.80;99.90
12335;DHT22;6233;51.560;9.986;2023-02-01T07:19:36;3.80;99.90
12335;DHT22;6233;51.560;9.986;2023-02-01T07:22:38;3.80;99.90
12335;DHT22;6233;51.560;9.986;2023-02-01T07:25:40;3.80;99.90
12335;DHT22;6233;51.560;9.986;2023-02-01T07:28:42;3.80;99.90
12335;DHT22;6233;51.560;9.986;2023-02-01T07:31:43;3.90;99.90
12335;DHT22;6233;51.560;9.986;2023-02-01T07:34:45;3.90;99.90
12335;DHT22;6233;51.560;9.986;2023-02-01T07:37:47;3.90;99.90
12335;DHT22;6233;51.560;9.986;2023-02-01T07:40:49;3.90;99.90
12335;DHT22;6233;51.560;9.986;2023-02-01T07:43:55;3.90;99.90
12335;DHT22;6233;51.560;9.986;2023-02-01T07:46:58;4.00;99.90
12335;DHT22;6233;51.560;9.986;2023-02-01T07:50:00;4.00;99.90
12335;DHT22;6233;51.560;9.986;2023-02-01T07:53:02;4.10;99.90
12335;DHT22;6233;51.560;9.986;2023-02-01T07:56:08;4.10;99.90
12335;DHT22;6233;51.560;9.986;2023-02-01T07:59:15;4.10;99.90
12335;DHT22;6233;51.560;9.986;2023-02-01T08:02:17;4.20;99.90
12335;DHT22;6233;51.560;9.986;2023-02-01T08:05:19;4.20;99.90
12335;DHT22;6233;51.560;9.986;2023-02-01T08:08:20;4.20;99.90
12335;DHT22;6233;51.560;9.986;2023-02-01T08:11:24;4.20;99.90
12335;DHT22;6233;51.560;9.986;2023-02-01T08:14:26;4.20;99.90
12335;DHT22;6233;51.560;9.986;2023-02-01T08:17:28;4.20;99.90
12335;DHT22;6233;51.560;9.986;2023-02-01T08:20:32;4.30;99.90
12335;DHT22;6233;51.560;9.986;2023-02-01T08:23:40;4.30;99.90
12335;DHT22;6233;51.560;9.986;2023-02-01T08:26:42;4.30;99.90
12335;DHT22;6233;51.560;9.986;2023-02-01T08:30:08;4.20;99.90
12335;DHT22;6233;51.560;9.986;2023-02-01T08:33:10;4.20;99.90
12335;DHT22;6233;51.560;9.986;2023-02-01T08:36:16;4.10;99.90
12335;DHT22;6233;51.560;9.986;2023-02-01T08:39:18;4.10;99.90
12335;DHT22;6233;51.560;9.986;2023-02-01T08:42:19;4.00;99.90
12335;DHT22;6233;51.560;9.986;2023-02-01T08:45:40;4.00;99.90
12335;DHT22;6233;51.560;9.986;2023-02-01T08:48:42;3.90;99.90
12335;DHT22;6233;51.560;9.986;2023-02-01T08:51:44;3.90;99.90
12335;DHT22;6233;51.560;9.986;2023-02-01T08:54:46;3.90;99.90
12335;DHT22;6233;51.560;9.986;2023-02-01T08:57:47;3.90;99.90
12335;DHT22;6233;51.560;9.986;2023-02-01T09:00:49;3.90;99.90
12335;DHT22;6233;51.560;9.986;2023-02-01T09:03:51;3.90;99.90
12335;DHT22;6233;51.560;9.986;2023-02-01T09:06:53;3.90;99.90
12335;DHT22;6233;51.560;9.986;2023-02-01T09:09:57;3.90;99.90
12335;DHT22;6233;51.560;9.986;2023-02-01T09:13:02;3.90;99.90
12335;DHT22;6233;51.560;9.986;2023-02-01T09:16:04;3.90;99.90
12335;DHT22;6233;51.560;9.986;2023-02-01T09:19:06;3.80;99.90
12335;DHT22;6233;51.560;9.986;2023-02-01T09:22:26;3.80;99.90
12335;DHT22;6233;51.560;9.986;2023-02-01T09:25:28;3.80;99.90
12335;DHT22;6233;51.560;9.986;2023-02-01T09:28:30;3.90;99.90
12335;DHT22;6233;51.560;9.986;2023-02-01T09:31:32;3.90;99.90
12335;DHT22;6233;51.560;9.986;2023-02-01T09:34:35;3.90;99.90
12335;DHT22;6233;51.560;9.986;2023-02-01T09:37:37;4.00;99.90
12335;DHT22;6233;51.560;9.986;2023-02-01T09:40:41;4.10;99.90
12335;DHT22;6233;51.560;9.986;2023-02-01T09:44:17;4.10;99.90
12335;DHT22;6233;51.560;9.986;2023-02-01T09:47:22;4.20;99.90
12335;DHT22;6233;51.560;9.986;2023-02-01T09:50:37;4.30;99.90
12335;DHT22;6233;51.560;9.986;2023-02-01T09:53:46;4.40;99.90
12335;DHT22;6233;51.560;9.986;2023-02-01T09:56:59;4.40;99.90
12335;DHT22;6233;51.560;9.986;2023-02-01T10:00:16;4.40;99.90
12335;DHT22;6233;51.560;9.986;2023-02-01T10:03:20;4.50;99.90
12335;DHT22;6233;51.560;9.986;2023-02-01T10:06:57;4.50;99.90
12335;DHT22;6233;51.560;9.986;2023-02-01T10:24:49;4.90;99.90
12335;DHT22;6233;51.560;9.986;2023-02-01T10:28:01;4.90;99.90
12335;DHT22;6233;51.560;9.986;2023-02-01T10:31:08;4.90;99.90
12335;DHT22;6233;51.560;9.986;2023-02-01T10:34:21;4.90;99.90
12335;DHT22;6233;51.560;9.986;2023-02-01T10:37:33;4.90;99.90
12335;DHT22;6233;51.560;9.986;2023-02-01T10:40:37;4.90;99.90
12335;DHT22;6233;51.560;9.986;2023-02-01T10:43:39;4.90;99.90
12335;DHT22;6233;51.560;9.986;2023-02-01T10:46:41;4.90;99.90
12335;DHT22;6233;51.560;9.986;2023-02-01T10:49:45;4.90;99.90
12335;DHT22;6233;51.560;9.986;2023-02-01T10:52:54;5.00;99.90
12335;DHT22;6233;51.560;9.986;2023-02-01T10:56:06;5.00;99.90
12335;DHT22;6233;51.560;9.986;2023-02-01T10:59:24;5.00;99.90
12335;DHT22;6233;51.560;9.986;2023-02-01T11:02:30;5.10;99.90
12335;DHT22;6233;51.560;9.986;2023-02-01T11:05:44;5.10;99.90
12335;DHT22;6233;51.560;9.986;2023-02-01T11:08:55;5.10;99.90
12335;DHT22;6233;51.560;9.986;2023-02-01T11:11:58;5.10;99.90
12335;DHT22;6233;51.560;9.986;2023-02-01T11:15:23;5.10;99.90
12335;DHT22;6233;51.560;9.986;2023-02-01T11:18:31;5.10;99.90
12335;DHT22;6233;51.560;9.986;2023-02-01T11:21:34;5.10;99.90
12335;DHT22;6233;51.560;9.986;2023-02-01T11:24:36;5.10;99.90
12335;DHT22;6233;51.560;9.986;2023-02-01T11:27:39;5.10;99.90
12335;DHT22;6233;51.560;9.986;2023-02-01T11:30:56;5.10;99.90
12335;DHT22;6233;51.560;9.986;2023-02-01T11:34:05;5.10;99.90
12335;DHT22;6233;51.560;9.986;2023-02-01T11:37:21;5.20;99.90
12335;DHT22;6233;51.560;9.986;2023-02-01T11:40:37;5.20;99.90
12335;DHT22;6233;51.560;9.986;2023-02-01T11:44:01;5.20;99.90
12335;DHT22;6233;51.560;9.986;2023-02-01T11:50:57;5.20;99.90
12335;DHT22;6233;51.560;9.986;2023-02-01T12:08:06;5.20;99.90
12335;DHT22;6233;51.560;9.986;2023-02-01T12:18:26;5.30;99.90
12335;DHT22;6233;51.560;9.986;2023-02-01T12:35:28;5.30;99.90
12335;DHT22;6233;51.560;9.986;2023-02-01T12:42:22;5.30;99.90
12335;DHT22;6233;51.560;9.986;2023-02-01T12:45:49;5.30;99.90
12335;DHT22;6233;51.560;9.986;2023-02-01T12:49:06;5.40;99.90
12335;DHT22;6233;51.560;9.986;2023-02-01T12:52:23;5.40;99.90
12335;DHT22;6233;51.560;9.986;2023-02-01T12:55:42;5.40;99.90
12335;DHT22;6233;51.560;9.986;2023-02-01T12:58:49;5.50;99.90
12335;DHT22;6233;51.560;9.986;2023-02-01T13:05:19;5.70;99.90
12335;DHT22;6233;51.560;9.986;2023-02-01T13:08:43;5.70;99.90
12335;DHT22;6233;51.560;9.986;2023-02-01T13:11:48;5.70;99.90
12335;DHT22;6233;51.560;9.986;2023-02-01T13:14:55;5.70;99.90
12335;DHT22;6233;51.560;9.986;2023-02-01T13:18:03;5.70;99.90
12335;DHT22;6233;51.560;9.986;2023-02-01T13:21:22;5.60;99.90
12335;DHT22;6233;51.560;9.986;2023-02-01T13:42:43;5.10;99.90
12335;DHT22;6233;51.560;9.986;2023-02-01T13:45:52;5.10;99.90
12335;DHT22;6233;51.560;9.986;2023-02-01T13:49:01;5.00;99.90
12335;DHT22;6233;51.560;9.986;2023-02-01T13:52:03;5.00;99.90
12335;DHT22;6233;51.560;9.986;2023-02-01T13:55:28;4.90;99.90
12335;DHT22;6233;51.560;9.986;2023-02-01T13:58:38;4.90;99.90
12335;DHT22;6233;51.560;9.986;2023-02-01T14:01:40;4.90;99.90
12335;DHT22;6233;51.560;9.986;2023-02-01T14:04:50;4.90;99.90
12335;DHT22;6233;51.560;9.986;2023-02-01T14:11:06;4.90;99.90
12335;DHT22;6233;51.560;9.986;2023-02-01T14:17:34;4.80;99.90
12335;DHT22;6233;51.560;9.986;2023-02-01T14:20:43;4.70;99.90
12335;DHT22;6233;51.560;9.986;2023-02-01T14:23:56;4.60;99.90
12335;DHT22;6233;51.560;9.986;2023-02-01T14:27:15;4.60;99.90
12335;DHT22;6233;51.560;9.986;2023-02-01T14:30:19;4.50;99.90
12335;DHT22;6233;51.560;9.986;2023-02-01T14:33:24;4.40;99.90
12335;DHT22;6233;51.560;9.986;2023-02-01T14:36:26;4.40;99.90
12335;DHT22;6233;51.560;9.986;2023-02-01T14:56:21;4.20;99.90
12335;DHT22;6233;51.560;9.986;2023-02-01T14:59:25;4.30;99.90
12335;DHT22;6233;51.560;9.986;2023-02-01T15:02:52;4.30;99.90
12335;DHT22;6233;51.560;9.986;2023-02-01T15:05:55;4.30;99.90
12335;DHT22;6233;51.560;9.986;2023-02-01T15:12:28;4.40;99.90
12335;DHT22;6233;51.560;9.986;2023-02-01T15:15:33;4.50;99.90
12335;DHT22;6233;51.560;9.986;2023-02-01T15:18:38;4.50;99.90
12335;DHT22;6233;51.560;9.986;2023-02-01T15:21:49;4.50;99.90
12335;DHT22;6233;51.560;9.986;2023-02-01T15:24:53;4.50;99.90
12335;DHT22;6233;51.560;9.986;2023-02-01T15:28:31;4.50;99.90
12335;DHT22;6233;51.560;9.986;2023-02-01T15:31:44;4.50;99.90
12335;DHT22;6233;51.560;9.986;2023-02-01T15:41:58;3.90;99.90
12335;DHT22;6233;51.560;9.986;2023-02-01T15:45:17;3.50;99.90
12335;DHT22;6233;51.560;9.986;2023-02-01T15:48:35;3.40;99.90
12335;DHT22;6233;51.560;9.986;2023-02-01T15:51:44;3.40;99.90
12335;DHT22;6233;51.560;9.986;2023-02-01T15:54:49;3.40;99.90
12335;DHT22;6233;51.560;9.986;2023-02-01T16:01:49;3.40;99.90
12335;DHT22;6233;51.560;9.986;2023-02-01T16:04:52;3.40;99.90
12335;DHT22;6233;51.560;9.986;2023-02-01T16:11:14;3.60;99.90
12335;DHT22;6233;51.560;9.986;2023-02-01T16:14:25;3.60;99.90
12335;DHT22;6233;51.560;9.986;2023-02-01T16:17:47;3.70;99.90
12335;DHT22;6233;51.560;9.986;2023-02-01T16:20:49;3.70;99.90
12335;DHT22;6233;51.560;9.986;2023-02-01T16:23:53;3.70;99.90
12335;DHT22;6233;51.560;9.986;2023-02-01T16:26:57;3.70;99.90
12335;DHT22;6233;51.560;9.986;2023-02-01T16:29:59;3.70;99.90
12335;DHT22;6233;51.560;9.986;2023-02-01T16:33:03;3.70;99.90
12335;DHT22;6233;51.560;9.986;2023-02-01T16:36:26;3.60;99.90
12335;DHT22;6233;51.560;9.986;2023-02-01T16:39:32;3.60;99.90
12335;DHT22;6233;51.560;9.986;2023-02-01T16:42:37;3.60;99.90
12335;DHT22;6233;51.560;9.986;2023-02-01T16:46:25;3.50;99.90
12335;DHT22;6233;51.560;9.986;2023-02-01T16:49:40;3.50;99.90
12335;DHT22;6233;51.560;9.986;2023-02-01T16:57:23;3.60;99.90
12335;DHT22;6233;51.560;9.986;2023-02-01T17:00:54;3.50;99.90
12335;DHT22;6233;51.560;9.986;2023-02-01T17:04:09;3.50;99.90
12335;DHT22;6233;51.560;9.986;2023-02-01T17:07:20;3.50;99.90
12335;DHT22;6233;51.560;9.986;2023-02-01T17:10:32;3.50;99.90
12335;DHT22;6233;51.560;9.986;2023-02-01T17:18:02;3.60;99.90
12335;DHT22;6233;51.560;9.986;2023-02-01T17:21:05;3.60;99.90
12335;DHT22;6233;51.560;9.986;2023-02-01T17:24:09;3.70;99.90
12335;DHT22;6233;51.560;9.986;2023-02-01T17:27:13;3.70;99.90
12335;DHT22;6233;51.560;9.986;2023-02-01T17:30:16;3.70;99.90
12335;DHT22;6233;51.560;9.986;2023-02-01T17:36:28;3.80;99.90
12335;DHT22;6233;51.560;9.986;2023-02-01T17:39:30;3.90;99.90
12335;DHT22;6233;51.560;9.986;2023-02-01T17:42:57;3.90;99.90
12335;DHT22;6233;51.560;9.986;2023-02-01T17:46:12;3.90;99.90
12335;DHT22;6233;51.560;9.986;2023-02-01T17:49:19;3.90;99.90
12335;DHT22;6233;51.560;9.986;2023-02-01T17:52:43;4.00;99.90
12335;DHT22;6233;51.560;9.986;2023-02-01T17:55:55;4.00;99.90
12335;DHT22;6233;51.560;9.986;2023-02-01T17:59:11;4.00;99.90
12335;DHT22;6233;51.560;9.986;2023-02-01T18:02:21;4.00;99.90
12335;DHT22;6233;51.560;9.986;2023-02-01T18:05:32;4.00;99.90
12335;DHT22;6233;51.560;9.986;2023-02-01T18:08:58;4.00;99.90
12335;DHT22;6233;51.560;9.986;2023-02-01T18:12:16;4.00;99.90
12335;DHT22;6233;51.560;9.986;2023-02-01T19:14:22;4.10;99.90
12335;DHT22;6233;51.560;9.986;2023-02-01T19:17:30;4.00;99.90
12335;DHT22;6233;51.560;9.986;2023-02-01T19:20:41;4.00;99.90
12335;DHT22;6233;51.560;9.986;2023-02-01T19:23:46;4.00;99.90
12335;DHT22;6233;51.560;9.986;2023-02-01T19:26:47;4.00;99.90
12335;DHT22;6233;51.560;9.986;2023-02-01T19:30:36;3.90;99.90
12335;DHT22;6233;51.560;9.986;2023-02-01T19:34:03;3.90;99.90
12335;DHT22;6233;51.560;9.986;2023-02-01T19:37:11;3.80;99.90
12335;DHT22;6233;51.560;9.986;2023-02-01T19:40:28;3.80;99.90
12335;DHT22;6233;51.560;9.986;2023-02-01T19:43:34;3.70;99.90
12335;DHT22;6233;51.560;9.986;2023-02-01T19:46:38;3.70;99.90
12335;DHT22;6233;51.560;9.986;2023-02-01T19:49:43;3.70;99.90
12335;DHT22;6233;51.560;9.986;2023-02-01T19:53:03;3.70;99.90
12335;DHT22;6233;51.560;9.986;2023-02-01T19:56:34;3.60;99.90
12335;DHT22;6233;51.560;9.986;2023-02-01T19:59:47;3.70;99.90
12335;DHT22;6233;51.560;9.986;2023-02-01T20:02:51;3.70;99.90
12335;DHT22;6233;51.560;9.986;2023-02-01T20:05:58;3.70;99.90
12335;DHT22;6233;51.560;9.986;2023-02-01T20:09:06;3.80;99.90
12335;DHT22;6233;51.560;9.986;2023-02-01T20:16:40;3.90;99.90
12335;DHT22;6233;51.560;9.986;2023-02-01T20:19:45;3.90;99.90
12335;DHT22;6233;51.560;9.986;2023-02-01T20:22:47;3.90;99.90
12335;DHT22;6233;51.560;9.986;2023-02-01T20:26:03;4.00;99.90
12335;DHT22;6233;51.560;9.986;2023-02-01T20:29:38;4.00;99.90
12335;DHT22;6233;51.560;9.986;2023-02-01T20:32:52;4.00;99.90
12335;DHT22;6233;51.560;9.986;2023-02-01T20:35:59;4.10;99.90
12335;DHT22;6233;51.560;9.986;2023-02-01T20:39:02;4.10;99.90
12335;DHT22;6233;51.560;9.986;2023-02-01T20:42:28;4.10;99.90
12335;DHT22;6233;51.560;9.986;2023-02-01T20:45:43;4.10;99.90
12335;DHT22;6233;51.560;9.986;2023-02-01T20:48:54;4.10;99.90
12335;DHT22;6233;51.560;9.986;2023-02-01T20:51:58;4.00;99.90
12335;DHT22;6233;51.560;9.986;2023-02-01T20:55:01;4.00;99.90
12335;DHT22;6233;51.560;9.986;2023-02-01T20:58:05;4.00;99.90
12335;DHT22;6233;51.560;9.986;2023-02-01T21:01:10;4.00;99.90
12335;DHT22;6233;51.560;9.986;2023-02-01T21:04:29;4.10;99.90
12335;DHT22;6233;51.560;9.986;2023-02-01T21:07:49;4.10;99.90
12335;DHT22;6233;51.560;9.986;2023-02-01T21:11:12;4.10;99.90
12335;DHT22;6233;51.560;9.986;2023-02-01T21:14:14;4.10;99.90
12335;DHT22;6233;51.560;9.986;2023-02-01T21:17:17;4.00;99.90
12335;DHT22;6233;51.560;9.986;2023-02-01T21:20:28;4.10;99.90
12335;DHT22;6233;51.560;9.986;2023-02-01T21:23:29;4.10;99.90
12335;DHT22;6233;51.560;9.986;2023-02-01T21:26:32;4.10;99.90
12335;DHT22;6233;51.560;9.986;2023-02-01T21:29:41;4.10;99.90
12335;DHT22;6233;51.560;9.986;2023-02-01T21:32:43;4.10;99.90
12335;DHT22;6233;51.560;9.986;2023-02-01T21:35:44;4.10;99.90
12335;DHT22;6233;51.560;9.986;2023-02-01T21:38:51;4.10;99.90
12335;DHT22;6233;51.560;9.986;2023-02-01T21:41:59;4.10;99.90
12335;DHT22;6233;51.560;9.986;2023-02-01T21:45:18;4.10;99.90
12335;DHT22;6233;51.560;9.986;2023-02-01T21:48:20;4.10;99.90
12335;DHT22;6233;51.560;9.986;2023-02-01T21:51:21;4.00;99.90
12335;DHT22;6233;51.560;9.986;2023-02-01T21:54:23;4.10;99.90
12335;DHT22;6233;51.560;9.986;2023-02-01T21:57:28;4.10;99.90
12335;DHT22;6233;51.560;9.986;2023-02-01T22:00:30;4.00;99.90
12335;DHT22;6233;51.560;9.986;2023-02-01T22:03:31;4.00;99.90
12335;DHT22;6233;51.560;9.986;2023-02-01T22:06:38;4.00;99.90
12335;DHT22;6233;51.560;9.986;2023-02-01T22:09:42;3.90;99.90
12335;DHT22;6233;51.560;9.986;2023-02-01T22:12:44;4.00;99.90
12335;DHT22;6233;51.560;9.986;2023-02-01T22:15:45;4.00;99.90
12335;DHT22;6233;51.560;9.986;2023-02-01T22:18:51;4.00;99.90
12335;DHT22;6233;51.560;9.986;2023-02-01T22:21:53;4.00;99.90
12335;DHT22;6233;51.560;9.986;2023-02-01T22:24:55;4.00;99.90
12335;DHT22;6233;51.560;9.986;2023-02-01T22:27:57;4.00;99.90
12335;DHT22;6233;51.560;9.986;2023-02-01T22:31:19;4.00;99.90
12335;DHT22;6233;51.560;9.986;2023-02-01T22:34:21;4.00;99.90
12335;DHT22;6233;51.560;9.986;2023-02-01T22:37:22;4.00;99.90
12335;DHT22;6233;51.560;9.986;2023-02-01T22:40:24;4.00;99.90
12335;DHT22;6233;51.560;9.986;2023-02-01T22:43:26;3.90;99.90
12335;DHT22;6233;51.560;9.986;2023-02-01T22:46:28;3.90;99.90
12335;DHT22;6233;51.560;9.986;2023-02-01T22:49:32;3.90;99.90
12335;DHT22;6233;51.560;9.986;2023-02-01T22:52:33;3.90;99.90
12335;DHT22;6233;51.560;9.986;2023-02-01T22:55:35;3.90;99.90
12335;DHT22;6233;51.560;9.986;2023-02-01T22:58:37;3.80;99.90
12335;DHT22;6233;51.560;9.986;2023-02-01T23:01:39;3.80;99.90
12335;DHT22;6233;51.560;9.986;2023-02-01T23:04:42;3.70;99.90
12335;DHT22;6233;51.560;9.986;2023-02-01T23:08:02;3.70;99.90
12335;DHT22;6233;51.560;9.986;2023-02-01T23:11:17;3.70;99.90
12335;DHT22;6233;51.560;9.986;2023-02-01T23:14:19;3.70;99.90
12335;DHT22;6233;51.560;9.986;2023-02-01T23:17:21;3.70;99.90
12335;DHT22;6233;51.560;9.986;2023-02-01T23:20:24;3.70;99.90
12335;DHT22;6233;51.560;9.986;2023-02-01T23:23:26;3.70;99.90
12335;DHT22;6233;51.560;9.986;2023-02-01T23:26:29;3.70;99.90
12335;DHT22;6233;51.560;9.986;2023-02-01T23:29:31;3.70;99.90
12335;DHT22;6233;51.560;9.986;2023-02-01T23:32:34;3.70;99.90
12335;DHT22;6233;51.560;9.986;2023-02-01T23:35:36;3.70;99.90
12335;DHT22;6233;51.560;9.986;2023-02-01T23:38:38;3.70;99.90
12335;DHT22;6233;51.560;9.986;2023-02-01T23:41:39;3.70;99.90
12335;DHT22;6233;51.560;9.986;2023-02-01T23:44:41;3.80;99.90
12335;DHT22;6233;51.560;9.986;2023-02-01T23:47:43;3.80;99.90
12335;DHT22;6233;51.560;9.986;2023-02-01T23:50:44;3.70;99.90
12335;DHT22;6233;51.560;9.986;2023-02-01T23:53:46;3.70;99.90
12335;DHT22;6233;51.560;9.986;2023-02-01T23:56:49;3.70;99.90
12335;DHT22;6233;51.560;9.986;2023-02-01T23:59:50;3.70;99.90
